Time;durP1;ratioP1;P1;durP2;ratioP2;P2;SDS_P1;SDS_P2;PMS_P1;PMS_P2;Temp;Humidity;BMP_temperature;BMP_pressure;BME280_temperature;BME280_humidity;BME280_pressure;Samples;Min_cycle;Max_cycle;Signal;HPM_P1;HPM_P2
2021/12/20 00:00:55;;;;;;;;;95.00;85.25;;;;;;;;5048342;28;8804;-85
2021/12/20 00:03:21;;;;;;;;;88.20;72.60;;;;;;;;5050515;27;10071;-84
2021/12/20 00:05:46;;;;;;;;;91.75;78.25;;;;;;;;5054075;27;8808;-84
2021/12/20 00:08:11;;;;;;;;;86.25;72.25;;;;;;;;5050223;27;8836;-85
2021/12/20 00:10:37;;;;;;;;;91.25;78.25;;;;;;;;5050210;28;8800;-85
2021/12/20 00:13:02;;;;;;;;;88.50;74.50;;;;;;;;5049865;27;8852;-85
2021/12/20 00:15:27;;;;;;;;;89.00;75.67;;;;;;;;5050053;27;9595;-85
2021/12/20 00:17:53;;;;;;;;;98.25;91.75;;;;;;;;5049618;28;9530;-85
2021/12/20 00:20:19;;;;;;;;;86.00;71.75;;;;;;;;5049786;27;8792;-85
2021/12/20 00:22:45;;;;;;;;;88.80;75.60;;;;;;;;5048449;28;8741;-84
2021/12/20 00:25:10;;;;;;;;;94.25;85.50;;;;;;;;5050166;27;8785;-84
2021/12/20 00:27:36;;;;;;;;;94.00;83.00;;;;;;;;5050162;28;8792;-84
2021/12/20 00:30:02;;;;;;;;;93.75;84.75;;;;;;;;5049091;27;8812;-85
2021/12/20 00:32:28;;;;;;;;;96.67;87.00;;;;;;;;5050078;28;8785;-85
2021/12/20 00:34:53;;;;;;;;;88.50;76.25;;;;;;;;5049175;27;8859;-85
2021/12/20 00:40:21;;;;;;;;;97.00;87.33;;;;;;;;5049392;28;8776;-84
2021/12/20 00:42:48;;;;;;;;;94.00;83.00;;;;;;;;5052504;28;11575;-85
2021/12/20 00:45:13;;;;;;;;;96.00;86.00;;;;;;;;5086810;27;8792;-84
2021/12/20 00:47:39;;;;;;;;;87.40;72.20;;;;;;;;5052630;28;8784;-84
2021/12/20 00:50:05;;;;;;;;;89.75;76.25;;;;;;;;5052609;27;8811;-84
2021/12/20 00:52:31;;;;;;;;;97.40;90.60;;;;;;;;5052520;27;8885;-84
2021/12/20 00:54:56;;;;;;;;;91.00;78.67;;;;;;;;5052381;27;8847;-84
2021/12/20 00:57:22;;;;;;;;;87.67;73.00;;;;;;;;5051078;28;8926;-84
2021/12/20 00:59:47;;;;;;;;;99.00;92.33;;;;;;;;5052530;27;8828;-85
2021/12/20 01:02:12;;;;;;;;;97.00;87.25;;;;;;;;5052488;28;9028;-84
2021/12/20 01:04:38;;;;;;;;;93.67;81.67;;;;;;;;5053050;27;8934;-85
2021/12/20 01:07:03;;;;;;;;;100.33;90.67;;;;;;;;5052029;27;8868;-84
2021/12/20 01:09:29;;;;;;;;;93.75;83.25;;;;;;;;5052907;27;8831;-84
2021/12/20 01:12:01;;;;;;;;;92.67;77.00;;;;;;;;5052594;28;8812;-85
2021/12/20 01:14:28;;;;;;;;;93.00;83.00;;;;;;;;5049574;28;12439;-84
2021/12/20 01:16:56;;;;;;;;;82.75;65.75;;;;;;;;5053887;27;8800;-84
2021/12/20 01:19:22;;;;;;;;;91.20;80.60;;;;;;;;5051581;28;8812;-85
2021/12/20 01:21:47;;;;;;;;;91.00;76.80;;;;;;;;5051094;27;8823;-85
2021/12/20 01:24:13;;;;;;;;;96.00;87.00;;;;;;;;5052467;28;8828;-85
2021/12/20 01:26:38;;;;;;;;;95.75;84.25;;;;;;;;5052750;27;8792;-85
2021/12/20 01:29:03;;;;;;;;;100.00;90.33;;;;;;;;5051951;28;8820;-85
2021/12/20 01:31:29;;;;;;;;;93.33;78.33;;;;;;;;5052231;27;8808;-85
2021/12/20 01:33:54;;;;;;;;;92.00;81.75;;;;;;;;5052073;28;8867;-85
2021/12/20 01:36:19;;;;;;;;;85.75;67.25;;;;;;;;5052325;27;8930;-84
2021/12/20 01:38:45;;;;;;;;;85.00;68.67;;;;;;;;5052030;28;8915;-85
2021/12/20 01:41:10;;;;;;;;;93.50;82.50;;;;;;;;5052293;27;8823;-84
2021/12/20 01:43:37;;;;;;;;;91.00;79.00;;;;;;;;5052289;28;8820;-85
2021/12/20 01:46:03;;;;;;;;;100.50;92.50;;;;;;;;5051820;27;8900;-84
2021/12/20 01:48:30;;;;;;;;;90.60;77.40;;;;;;;;5051936;28;11575;-85
2021/12/20 01:53:27;;;;;;;;;98.40;89.40;;;;;;;;5037636;27;8839;-84
2021/12/20 01:55:53;;;;;;;;;89.50;73.75;;;;;;;;5049401;28;8866;-84
2021/12/20 01:58:19;;;;;;;;;94.40;85.20;;;;;;;;5050713;27;9482;-84
2021/12/20 02:03:29;;;;;;;;;91.00;75.40;;;;;;;;5053327;28;8780;-85
2021/12/20 02:05:58;;;;;;;;;101.00;94.20;;;;;;;;5055226;27;8797;-85
2021/12/20 02:08:26;;;;;;;;;105.20;97.60;;;;;;;;5051993;28;9658;-84
2021/12/20 02:10:54;;;;;;;;;97.40;90.00;;;;;;;;5051784;27;9646;-85
2021/12/20 02:13:20;;;;;;;;;85.25;69.75;;;;;;;;5051817;28;8812;-84
2021/12/20 02:15:45;;;;;;;;;94.75;82.25;;;;;;;;5050097;27;9203;-84
2021/12/20 02:18:12;;;;;;;;;99.00;89.33;;;;;;;;5051742;28;8812;-84
2021/12/20 02:20:38;;;;;;;;;97.50;88.75;;;;;;;;5051750;27;11202;-84
2021/12/20 02:23:05;;;;;;;;;99.50;96.50;;;;;;;;5051463;28;8823;-84
2021/12/20 02:25:30;;;;;;;;;98.75;92.25;;;;;;;;5051690;27;11255;-84
2021/12/20 02:27:56;;;;;;;;;91.00;74.75;;;;;;;;5051431;28;10808;-84
2021/12/20 02:38:23;;;;;;;;;92.50;76.00;;;;;;;;5061804;28;8769;-84
2021/12/20 02:41:06;;;;;;;;;102.50;94.50;;;;;;;;5054595;27;8885;-84
2021/12/20 02:43:35;;;;;;;;;97.50;85.50;;;;;;;;5077777;27;8962;-83
2021/12/20 02:46:03;;;;;;;;;97.50;88.00;;;;;;;;5052140;27;8952;-84
2021/12/20 02:48:29;;;;;;;;;95.00;84.75;;;;;;;;5051633;27;8768;-84
2021/12/20 02:50:54;;;;;;;;;98.25;89.75;;;;;;;;5066140;27;8790;-84
2021/12/20 02:53:19;;;;;;;;;99.20;94.60;;;;;;;;5086251;27;8839;-84
2021/12/20 02:55:45;;;;;;;;;109.25;102.50;;;;;;;;5048358;27;8933;-83
2021/12/20 02:58:10;;;;;;;;;98.25;91.50;;;;;;;;5051357;27;8819;-84
2021/12/20 03:00:36;;;;;;;;;96.50;87.00;;;;;;;;5050862;28;8823;-84
2021/12/20 03:03:01;;;;;;;;;98.00;92.25;;;;;;;;5050926;27;8816;-84
2021/12/20 03:05:26;;;;;;;;;100.00;94.25;;;;;;;;5088425;27;8814;-84
2021/12/20 03:07:52;;;;;;;;;97.25;86.75;;;;;;;;5052233;28;8899;-84
2021/12/20 03:10:19;;;;;;;;;99.50;91.25;;;;;;;;5051242;27;8806;-85
2021/12/20 03:12:44;;;;;;;;;93.80;84.00;;;;;;;;5050873;28;12444;-84
2021/12/20 03:15:15;;;;;;;;;92.50;79.50;;;;;;;;5048397;27;8824;-84
2021/12/20 03:17:40;;;;;;;;;99.25;91.25;;;;;;;;5050824;28;9646;-84
2021/12/20 03:20:06;;;;;;;;;97.00;84.50;;;;;;;;5050726;27;11038;-84
2021/12/20 03:22:31;;;;;;;;;116.25;103.75;;;;;;;;5049641;28;8873;-84
2021/12/20 03:24:57;;;;;;;;;114.25;107.50;;;;;;;;5050470;27;9384;-83
2021/12/20 03:27:22;;;;;;;;;102.75;93.75;;;;;;;;5051119;28;8788;-84
2021/12/20 03:29:47;;;;;;;;;93.75;79.75;;;;;;;;5050196;27;8874;-84
2021/12/20 03:32:13;;;;;;;;;99.25;93.75;;;;;;;;5051169;28;8918;-84
2021/12/20 03:34:38;;;;;;;;;103.75;99.50;;;;;;;;5050565;27;8938;-84
2021/12/20 03:37:03;;;;;;;;;95.00;84.00;;;;;;;;5050465;28;8796;-84
2021/12/20 03:39:29;;;;;;;;;92.25;80.50;;;;;;;;5050732;27;8820;-84
2021/12/20 03:41:54;;;;;;;;;93.67;82.67;;;;;;;;5050530;28;8819;-84
2021/12/20 03:44:20;;;;;;;;;105.00;97.75;;;;;;;;5093293;27;8942;-84
2021/12/20 03:46:45;;;;;;;;;97.00;88.00;;;;;;;;5050313;28;8824;-84
2021/12/20 03:49:10;;;;;;;;;103.25;98.00;;;;;;;;5050416;27;8951;-84
2021/12/20 03:51:36;;;;;;;;;102.25;99.00;;;;;;;;5095871;27;8813;-84
2021/12/20 03:54:02;;;;;;;;;97.20;85.40;;;;;;;;5059895;27;8808;-84
2021/12/20 03:56:27;;;;;;;;;97.75;90.50;;;;;;;;5040558;28;8940;-84
2021/12/20 03:58:53;;;;;;;;;93.75;83.50;;;;;;;;5046582;28;8854;-84
2021/12/20 04:01:18;;;;;;;;;100.50;91.50;;;;;;;;5050554;28;8792;-84
2021/12/20 04:03:44;;;;;;;;;100.25;89.00;;;;;;;;5050051;28;8831;-84
2021/12/20 04:06:10;;;;;;;;;98.50;86.00;;;;;;;;5050243;27;8856;-84
2021/12/20 04:08:36;;;;;;;;;99.25;95.50;;;;;;;;5050284;27;8931;-84
2021/12/20 04:11:02;;;;;;;;;97.50;88.50;;;;;;;;5050142;28;8926;-84
2021/12/20 04:13:27;;;;;;;;;103.75;99.50;;;;;;;;5050116;27;8996;-84
2021/12/20 04:15:56;;;;;;;;;99.50;92.75;;;;;;;;5050313;28;8804;-83
2021/12/20 04:18:22;;;;;;;;;98.50;87.25;;;;;;;;5057524;27;11109;-85
2021/12/20 04:20:48;;;;;;;;;104.40;97.20;;;;;;;;5061891;28;11591;-84
2021/12/20 04:23:13;;;;;;;;;92.25;80.25;;;;;;;;5053004;27;8828;-84
2021/12/20 04:25:38;;;;;;;;;101.00;92.25;;;;;;;;5053516;28;8804;-84
2021/12/20 04:28:04;;;;;;;;;88.50;74.50;;;;;;;;5052633;27;8810;-84
2021/12/20 04:30:31;;;;;;;;;95.00;85.50;;;;;;;;5052960;28;8808;-84
2021/12/20 04:32:56;;;;;;;;;77.80;61.60;;;;;;;;5052471;27;8807;-84
2021/12/20 04:35:22;;;;;;;;;90.25;74.25;;;;;;;;5053262;28;8803;-84
2021/12/20 04:37:49;;;;;;;;;85.00;68.33;;;;;;;;5052734;27;8815;-84
2021/12/20 04:40:19;;;;;;;;;87.75;72.00;;;;;;;;5053091;27;8780;-84
2021/12/20 04:42:45;;;;;;;;;98.20;89.40;;;;;;;;5052521;27;8849;-84
2021/12/20 04:45:10;;;;;;;;;101.75;98.00;;;;;;;;5085296;27;8820;-84
2021/12/20 04:47:36;;;;;;;;;98.00;89.50;;;;;;;;5052833;27;8866;-84
2021/12/20 04:50:01;;;;;;;;;92.00;77.75;;;;;;;;5052526;28;8819;-84
2021/12/20 04:52:28;;;;;;;;;91.75;78.25;;;;;;;;5106622;27;8824;-84
2021/12/20 04:54:53;;;;;;;;;96.50;89.25;;;;;;;;5063204;28;8902;-85
2021/12/20 04:57:18;;;;;;;;;98.50;90.50;;;;;;;;5051602;27;11060;-84
2021/12/20 04:59:44;;;;;;;;;100.75;94.75;;;;;;;;5053175;28;8796;-84
2021/12/20 05:02:09;;;;;;;;;99.00;89.00;;;;;;;;5052622;27;8946;-84
2021/12/20 05:04:35;;;;;;;;;107.75;98.75;;;;;;;;5052845;27;8812;-84
2021/12/20 05:07:00;;;;;;;;;96.50;82.25;;;;;;;;5051985;27;9656;-84
2021/12/20 05:09:28;;;;;;;;;93.00;81.00;;;;;;;;5052844;27;8808;-84
2021/12/20 05:12:01;;;;;;;;;100.20;93.60;;;;;;;;5052229;28;8826;-84
2021/12/20 05:14:26;;;;;;;;;97.67;87.00;;;;;;;;5048417;28;8823;-84
2021/12/20 05:16:52;;;;;;;;;100.00;95.50;;;;;;;;5050584;28;11588;-84
2021/12/20 05:19:17;;;;;;;;;94.50;81.75;;;;;;;;5052436;27;9535;-84
2021/12/20 05:21:42;;;;;;;;;98.00;88.50;;;;;;;;5050779;28;8800;-85
2021/12/20 05:24:07;;;;;;;;;92.67;80.00;;;;;;;;5050939;27;8804;-84
2021/12/20 05:26:33;;;;;;;;;93.00;79.50;;;;;;;;5051167;28;8928;-84
2021/12/20 05:29:00;;;;;;;;;85.67;67.00;;;;;;;;5050842;27;8840;-84
2021/12/20 05:31:25;;;;;;;;;96.80;87.20;;;;;;;;5051906;27;8784;-84
2021/12/20 05:33:51;;;;;;;;;97.00;89.75;;;;;;;;5052090;28;8816;-84
2021/12/20 05:36:16;;;;;;;;;99.25;90.75;;;;;;;;5052181;27;8792;-84
2021/12/20 05:38:41;;;;;;;;;93.25;82.00;;;;;;;;5051998;28;8919;-84
2021/12/20 05:41:07;;;;;;;;;90.75;77.25;;;;;;;;5052320;27;8808;-84
2021/12/20 05:43:32;;;;;;;;;95.50;82.75;;;;;;;;5060721;27;8792;-84
2021/12/20 05:45:57;;;;;;;;;79.00;62.67;;;;;;;;5051804;27;8815;-84
2021/12/20 05:48:23;;;;;;;;;95.25;85.00;;;;;;;;5052157;28;8935;-83
2021/12/20 05:50:48;;;;;;;;;95.00;82.75;;;;;;;;5062965;27;9579;-84
2021/12/20 05:53:13;;;;;;;;;99.25;95.00;;;;;;;;5068512;27;8842;-84
2021/12/20 05:55:39;;;;;;;;;88.00;71.75;;;;;;;;5048746;27;8842;-84
2021/12/20 05:58:04;;;;;;;;;95.40;84.80;;;;;;;;5057458;28;9651;-84
2021/12/20 06:00:30;;;;;;;;;100.75;93.75;;;;;;;;5051705;27;8840;-84
2021/12/20 06:02:55;;;;;;;;;98.75;91.50;;;;;;;;5051938;28;8808;-83
2021/12/20 06:05:21;;;;;;;;;100.50;95.00;;;;;;;;5051684;27;8920;-84
2021/12/20 06:07:47;;;;;;;;;85.40;67.40;;;;;;;;5051685;28;8915;-84
2021/12/20 06:10:14;;;;;;;;;92.25;77.75;;;;;;;;5051766;27;8978;-84
2021/12/20 06:12:40;;;;;;;;;88.75;71.50;;;;;;;;5051916;28;8780;-84
2021/12/20 06:15:06;;;;;;;;;93.00;81.25;;;;;;;;5051315;27;8838;-84
2021/12/20 06:17:31;;;;;;;;;100.20;95.20;;;;;;;;5051924;28;8800;-84
2021/12/20 06:19:56;;;;;;;;;88.25;72.25;;;;;;;;5055225;27;8845;-84
2021/12/20 06:22:22;;;;;;;;;82.33;66.00;;;;;;;;5061303;28;8804;-84
2021/12/20 06:24:47;;;;;;;;;81.25;65.50;;;;;;;;5051607;27;8940;-83
2021/12/20 06:27:13;;;;;;;;;93.00;82.00;;;;;;;;5050414;28;8843;-84
2021/12/20 06:29:38;;;;;;;;;82.25;65.75;;;;;;;;5051455;27;9808;-84
2021/12/20 06:32:03;;;;;;;;;91.00;74.67;;;;;;;;5051747;28;8808;-84
2021/12/20 06:34:29;;;;;;;;;96.75;85.50;;;;;;;;5051325;27;9879;-84
2021/12/20 06:36:54;;;;;;;;;93.00;81.33;;;;;;;;5051483;28;8996;-84
2021/12/20 06:39:19;;;;;;;;;93.50;85.25;;;;;;;;5064350;28;8796;-84
2021/12/20 06:41:45;;;;;;;;;99.33;89.00;;;;;;;;5051730;27;8926;-84
2021/12/20 06:44:10;;;;;;;;;92.33;79.67;;;;;;;;5083633;27;8811;-84
2021/12/20 06:46:40;;;;;;;;;92.50;81.25;;;;;;;;5051453;28;10105;-84
2021/12/20 06:49:08;;;;;;;;;94.50;84.50;;;;;;;;5053671;27;8808;-84
2021/12/20 06:51:35;;;;;;;;;91.50;79.50;;;;;;;;5100031;27;9487;-83
2021/12/20 06:54:00;;;;;;;;;97.40;88.00;;;;;;;;5057497;27;8938;-84
2021/12/20 06:56:26;;;;;;;;;89.40;72.80;;;;;;;;5041603;28;8833;-84
2021/12/20 06:58:53;;;;;;;;;98.25;88.75;;;;;;;;5047559;28;8848;-84
2021/12/20 07:01:19;;;;;;;;;96.25;82.50;;;;;;;;5051667;28;8792;-84
2021/12/20 07:03:45;;;;;;;;;85.00;66.40;;;;;;;;5049635;27;8804;-84
2021/12/20 07:06:11;;;;;;;;;89.50;73.50;;;;;;;;5051185;27;8804;-84
2021/12/20 07:08:36;;;;;;;;;88.00;72.50;;;;;;;;5051335;27;8859;-84
2021/12/20 07:11:01;;;;;;;;;87.00;72.33;;;;;;;;5051299;28;8914;-84
2021/12/20 07:13:27;;;;;;;;;84.33;67.67;;;;;;;;5051264;27;11563;-84
2021/12/20 07:15:52;;;;;;;;;86.50;71.75;;;;;;;;5044883;28;8969;-84
2021/12/20 07:18:17;;;;;;;;;91.50;76.75;;;;;;;;5050981;27;9000;-84
2021/12/20 07:20:43;;;;;;;;;88.00;73.67;;;;;;;;5051001;28;8800;-84
2021/12/20 07:23:08;;;;;;;;;88.67;74.67;;;;;;;;5050310;27;11726;-84
2021/12/20 07:25:33;;;;;;;;;92.75;78.25;;;;;;;;5056195;27;8908;-83
2021/12/20 07:27:59;;;;;;;;;79.25;62.50;;;;;;;;5060908;28;8805;-83
2021/12/20 07:30:24;;;;;;;;;96.33;86.33;;;;;;;;5051238;27;8923;-82
2021/12/20 07:32:49;;;;;;;;;96.00;85.50;;;;;;;;5048626;27;8864;-81
2021/12/20 07:35:15;;;;;;;;;91.75;75.00;;;;;;;;5050844;28;8831;-80
2021/12/20 07:37:41;;;;;;;;;93.50;82.25;;;;;;;;5050284;27;8848;-82
2021/12/20 07:40:07;;;;;;;;;87.75;73.50;;;;;;;;5051024;27;8865;-81
2021/12/20 07:42:33;;;;;;;;;91.50;76.75;;;;;;;;5054159;28;8786;-81
2021/12/20 07:44:58;;;;;;;;;86.50;70.25;;;;;;;;5094693;27;8811;-81
2021/12/20 07:47:24;;;;;;;;;87.50;69.75;;;;;;;;5054112;28;8802;-81
2021/12/20 07:49:49;;;;;;;;;88.33;73.67;;;;;;;;5050672;27;8905;-83
2021/12/20 07:52:14;;;;;;;;;86.00;70.00;;;;;;;;5072552;27;8823;-83
2021/12/20 07:54:40;;;;;;;;;96.50;86.75;;;;;;;;5049946;27;8859;-82
2021/12/20 07:57:05;;;;;;;;;90.50;76.25;;;;;;;;5050938;27;8816;-81
2021/12/20 07:59:30;;;;;;;;;84.75;67.25;;;;;;;;5048651;27;9581;-82
2021/12/20 08:01:56;;;;;;;;;92.20;79.80;;;;;;;;5049976;28;8815;-81
2021/12/20 08:04:22;;;;;;;;;87.40;70.80;;;;;;;;5054498;27;8790;-82
2021/12/20 08:06:47;;;;;;;;;76.60;62.60;;;;;;;;5058598;27;8988;-83
2021/12/20 08:09:14;;;;;;;;;68.67;56.67;;;;;;;;5054932;27;8793;-83
2021/12/20 08:11:40;;;;;;;;;91.33;75.33;;;;;;;;5050191;28;8947;-82
2021/12/20 08:14:05;;;;;;;;;91.75;73.75;;;;;;;;5062735;28;9870;-82
2021/12/20 08:16:31;;;;;;;;;89.75;77.00;;;;;;;;5049654;28;9511;-81
2021/12/20 08:18:56;;;;;;;;;88.00;72.75;;;;;;;;5049511;27;8808;-82
2021/12/20 08:21:21;;;;;;;;;88.67;72.33;;;;;;;;5048403;28;8828;-81
2021/12/20 08:23:47;;;;;;;;;88.50;72.75;;;;;;;;5050023;27;8819;-81
2021/12/20 08:26:13;;;;;;;;;95.25;84.00;;;;;;;;5052910;28;9670;-81
2021/12/20 08:28:38;;;;;;;;;89.00;74.50;;;;;;;;5051657;27;8802;-82
2021/12/20 08:31:04;;;;;;;;;83.33;68.33;;;;;;;;5049034;27;8836;-83
2021/12/20 08:33:32;;;;;;;;;94.75;79.75;;;;;;;;5052969;28;8809;-83
2021/12/20 08:35:57;;;;;;;;;93.25;77.50;;;;;;;;5051364;27;9689;-84
2021/12/20 08:38:23;;;;;;;;;92.33;81.33;;;;;;;;5055003;27;8801;-83
2021/12/20 08:40:48;;;;;;;;;95.00;84.67;;;;;;;;5051401;27;8840;-84
2021/12/20 08:43:14;;;;;;;;;94.50;80.50;;;;;;;;5063061;27;11646;-84
2021/12/20 08:45:39;;;;;;;;;93.40;78.80;;;;;;;;5058148;27;10533;-83
2021/12/20 08:48:05;;;;;;;;;89.50;75.75;;;;;;;;5047810;28;8935;-83
2021/12/20 08:50:30;;;;;;;;;84.33;65.33;;;;;;;;5049768;27;9610;-84
2021/12/20 08:52:56;;;;;;;;;84.25;68.00;;;;;;;;5074480;27;8938;-83
2021/12/20 08:55:22;;;;;;;;;73.75;57.25;;;;;;;;5048433;27;8868;-83
2021/12/20 08:57:47;;;;;;;;;85.20;69.00;;;;;;;;5048889;28;9878;-84
2021/12/20 09:00:18;;;;;;;;;90.00;73.00;;;;;;;;5048936;27;9028;-83
2021/12/20 09:02:44;;;;;;;;;92.00;78.00;;;;;;;;5049162;27;8820;-84
2021/12/20 09:05:09;;;;;;;;;83.00;67.75;;;;;;;;5052473;27;8835;-84
2021/12/20 09:07:36;;;;;;;;;82.33;66.00;;;;;;;;5052305;27;8812;-84
2021/12/20 09:10:03;;;;;;;;;73.00;58.50;;;;;;;;5052635;28;8808;-83
2021/12/20 09:12:28;;;;;;;;;87.00;69.75;;;;;;;;5059966;27;9694;-84
2021/12/20 09:14:54;;;;;;;;;77.00;60.67;;;;;;;;5052108;27;8890;-82
2021/12/20 09:17:19;;;;;;;;;73.67;59.33;;;;;;;;5048053;28;9543;-83
2021/12/20 09:19:45;;;;;;;;;68.50;56.50;;;;;;;;5052625;27;8835;-85
2021/12/20 09:22:11;;;;;;;;;81.25;65.50;;;;;;;;5050964;28;8843;-85
2021/12/20 09:24:38;;;;;;;;;82.25;66.25;;;;;;;;5065539;27;9613;-83
2021/12/20 09:27:05;;;;;;;;;73.00;59.50;;;;;;;;5066050;27;8782;-84
2021/12/20 09:29:30;;;;;;;;;78.25;62.00;;;;;;;;5064435;27;8783;-83
2021/12/20 09:31:56;;;;;;;;;81.75;65.25;;;;;;;;5055464;28;11535;-81
2021/12/20 09:34:21;;;;;;;;;75.00;59.50;;;;;;;;5054403;28;8856;-81
2021/12/20 09:36:46;;;;;;;;;81.25;65.50;;;;;;;;5047913;27;8800;-80
2021/12/20 09:39:14;;;;;;;;;79.00;63.00;;;;;;;;5052399;28;9351;-81
2021/12/20 09:44:07;;;;;;;;;79.00;63.25;;;;;;;;5070719;27;8796;-81
2021/12/20 09:46:32;;;;;;;;;80.25;64.50;;;;;;;;5058114;27;8790;-82
2021/12/20 09:48:58;;;;;;;;;80.75;65.25;;;;;;;;5052177;28;8815;-83
2021/12/20 09:51:24;;;;;;;;;81.00;62.33;;;;;;;;5088581;27;8900;-83
2021/12/20 09:53:49;;;;;;;;;78.00;60.25;;;;;;;;5052170;27;8830;-83
2021/12/20 09:56:14;;;;;;;;;82.25;65.50;;;;;;;;5067674;27;8798;-83
2021/12/20 09:58:41;;;;;;;;;73.25;59.00;;;;;;;;5052326;27;8820;-83
2021/12/20 10:01:08;;;;;;;;;86.60;67.00;;;;;;;;5051883;28;8769;-82
2021/12/20 10:03:33;;;;;;;;;88.40;74.40;;;;;;;;5052168;27;8792;-83
2021/12/20 10:05:58;;;;;;;;;75.75;61.00;;;;;;;;5051232;27;8812;-83
2021/12/20 10:08:34;;;;;;;;;90.00;75.00;;;;;;;;5052103;28;8870;-82
2021/12/20 10:11:16;;;;;;;;;79.33;63.00;;;;;;;;5051713;27;8981;-83
2021/12/20 10:13:41;;;;;;;;;78.00;62.80;;;;;;;;5050901;28;9032;-82
2021/12/20 10:16:17;;;;;;;;;85.33;66.33;;;;;;;;5051732;27;8792;-82
2021/12/20 10:18:43;;;;;;;;;78.75;63.25;;;;;;;;5051424;28;8769;-84
2021/12/20 10:21:08;;;;;;;;;70.50;56.50;;;;;;;;5051740;28;9661;-86
2021/12/20 10:23:39;;;;;;;;;83.00;67.00;;;;;;;;5055238;27;8830;-85
2021/12/20 10:26:19;;;;;;;;;76.20;62.40;;;;;;;;5060630;28;8808;-83
2021/12/20 10:28:45;;;;;;;;;75.75;62.25;;;;;;;;5051180;28;8828;-83
2021/12/20 10:31:12;;;;;;;;;71.25;59.25;;;;;;;;5052796;27;8810;-82
2021/12/20 10:33:38;;;;;;;;;81.50;66.25;;;;;;;;5051289;27;8911;-84
2021/12/20 10:36:08;;;;;;;;;76.25;60.50;;;;;;;;5051774;27;8805;-84
2021/12/20 10:38:40;;;;;;;;;77.00;62.25;;;;;;;;5050379;27;8911;-84
2021/12/20 10:41:07;;;;;;;;;89.00;76.00;;;;;;;;5049598;28;8827;-86
2021/12/20 10:43:40;;;;;;;;;68.00;57.25;;;;;;;;5077344;27;8766;-83
2021/12/20 10:46:10;;;;;;;;;72.75;58.75;;;;;;;;5080278;27;8796;-83
2021/12/20 10:48:35;;;;;;;;;74.33;61.33;;;;;;;;5051890;27;9749;-84
2021/12/20 10:51:01;;;;;;;;;64.50;53.25;;;;;;;;5064587;27;8793;-83
2021/12/20 10:53:26;;;;;;;;;76.67;63.00;;;;;;;;5051657;27;8918;-84
2021/12/20 10:55:56;;;;;;;;;72.00;58.67;;;;;;;;5049898;28;8846;-84
2021/12/20 10:58:31;;;;;;;;;76.00;60.67;;;;;;;;5051708;27;8952;-84
2021/12/20 11:01:17;;;;;;;;;76.50;62.50;;;;;;;;5051006;28;10481;-84
2021/12/20 11:03:44;;;;;;;;;69.00;57.00;;;;;;;;5051442;28;8788;-84
2021/12/20 11:09:25;;;;;;;;;73.20;59.20;;;;;;;;5057671;28;8895;-83
2021/12/20 11:11:26;;;;;;;;;83.20;65.60;;;;;;;;5061735;28;8834;-83
2021/12/20 11:13:51;;;;;;;;;77.00;61.75;;;;;;;;5050946;28;8832;-84
2021/12/20 11:16:29;;;;;;;;;69.50;57.25;;;;;;;;5051335;28;8812;-78
2021/12/20 11:19:06;;;;;;;;;67.75;56.00;;;;;;;;5050410;27;9774;-83
2021/12/20 11:21:32;;;;;;;;;62.50;51.00;;;;;;;;5050853;28;8782;-82
2021/12/20 11:23:58;;;;;;;;;80.00;65.67;;;;;;;;5051512;27;8833;-81
2021/12/20 11:26:24;;;;;;;;;80.50;64.25;;;;;;;;5060831;28;8836;-82
2021/12/20 11:28:51;;;;;;;;;80.50;64.25;;;;;;;;5050831;28;11556;-83
2021/12/20 11:31:16;;;;;;;;;73.40;60.40;;;;;;;;5052539;27;9078;-82
2021/12/20 11:33:42;;;;;;;;;84.75;66.25;;;;;;;;5050793;28;8820;-83
2021/12/20 11:36:07;;;;;;;;;74.75;59.00;;;;;;;;5050524;27;9500;-84
2021/12/20 11:38:33;;;;;;;;;62.75;53.00;;;;;;;;5049556;28;8897;-84
2021/12/20 11:41:00;;;;;;;;;83.60;65.80;;;;;;;;5049044;27;8878;-83
2021/12/20 11:43:26;;;;;;;;;75.67;60.00;;;;;;;;5085732;27;9449;-83
2021/12/20 11:45:52;;;;;;;;;77.50;62.00;;;;;;;;5082742;27;9137;-84
2021/12/20 11:48:20;;;;;;;;;77.25;61.50;;;;;;;;5060112;28;8818;-84
2021/12/20 11:50:45;;;;;;;;;72.00;59.75;;;;;;;;5054701;27;8780;-84
2021/12/20 11:53:15;;;;;;;;;78.33;63.67;;;;;;;;5050941;28;8880;-83
2021/12/20 11:55:45;;;;;;;;;75.80;62.80;;;;;;;;5050246;27;9758;-83
2021/12/20 11:58:19;;;;;;;;;76.25;61.75;;;;;;;;5059737;27;9754;-84
2021/12/20 12:00:49;;;;;;;;;73.00;60.50;;;;;;;;5053459;27;11458;-83
2021/12/20 12:03:14;;;;;;;;;83.50;66.50;;;;;;;;5050532;28;8914;-83
2021/12/20 12:05:42;;;;;;;;;79.00;63.67;;;;;;;;5050230;27;8896;-83
2021/12/20 12:08:21;;;;;;;;;82.20;66.60;;;;;;;;5050984;27;10007;-82
2021/12/20 12:10:46;;;;;;;;;73.25;58.50;;;;;;;;5060182;27;8905;-82
2021/12/20 12:13:15;;;;;;;;;73.00;59.25;;;;;;;;5057251;28;8802;-83
2021/12/20 12:15:52;;;;;;;;;83.67;68.33;;;;;;;;5039735;28;8812;-84
2021/12/20 12:18:17;;;;;;;;;78.00;62.80;;;;;;;;5050456;27;8797;-83
2021/12/20 12:20:49;;;;;;;;;70.50;55.25;;;;;;;;5050328;27;8800;-82
2021/12/20 12:23:21;;;;;;;;;69.00;55.00;;;;;;;;5050689;27;8862;-84
2021/12/20 12:25:47;;;;;;;;;76.00;62.75;;;;;;;;5050965;27;9115;-83
2021/12/20 12:28:14;;;;;;;;;66.60;55.00;;;;;;;;5062132;27;10210;-83
2021/12/20 12:30:40;;;;;;;;;71.25;58.00;;;;;;;;5049805;27;8805;-84
2021/12/20 12:33:14;;;;;;;;;77.33;60.33;;;;;;;;5049784;27;8751;-83
2021/12/20 12:35:39;;;;;;;;;78.75;64.25;;;;;;;;5050227;27;8846;-83
2021/12/20 12:38:16;;;;;;;;;76.00;62.67;;;;;;;;5050423;28;11040;-83
2021/12/20 12:40:42;;;;;;;;;77.00;62.50;;;;;;;;5052565;28;8776;-82
2021/12/20 12:43:08;;;;;;;;;77.00;62.25;;;;;;;;5053439;27;9953;-82
2021/12/20 12:45:49;;;;;;;;;81.75;64.25;;;;;;;;5053141;28;8900;-82
2021/12/20 12:48:34;;;;;;;;;69.75;57.25;;;;;;;;5059472;27;8880;-83
2021/12/20 12:51:03;;;;;;;;;80.00;65.75;;;;;;;;5070088;27;8852;-82
2021/12/20 12:53:42;;;;;;;;;81.60;67.00;;;;;;;;5058153;28;8808;-82
2021/12/20 12:56:23;;;;;;;;;71.50;59.00;;;;;;;;5048099;28;8873;-82
2021/12/20 12:59:07;;;;;;;;;71.00;58.40;;;;;;;;5048710;28;8831;-82
2021/12/20 13:01:33;;;;;;;;;82.00;67.00;;;;;;;;5052888;27;8785;-82
2021/12/20 13:03:58;;;;;;;;;51.00;43.50;;;;;;;;5052310;27;8804;-82
2021/12/20 13:06:25;;;;;;;;;71.75;56.50;;;;;;;;5052718;27;9619;-82
2021/12/20 13:08:53;;;;;;;;;77.25;61.50;;;;;;;;5052681;27;8823;-83
2021/12/20 13:11:19;;;;;;;;;70.00;56.00;;;;;;;;5060742;28;8960;-83
2021/12/20 13:13:52;;;;;;;;;75.33;60.67;;;;;;;;5052739;27;9719;-83
2021/12/20 13:16:23;;;;;;;;;78.50;64.50;;;;;;;;5052255;27;11526;-82
2021/12/20 13:18:51;;;;;;;;;74.25;60.25;;;;;;;;5053627;27;10809;-82
2021/12/20 13:21:20;;;;;;;;;76.00;61.00;;;;;;;;5055320;28;8805;-83
2021/12/20 13:23:49;;;;;;;;;67.00;55.25;;;;;;;;5051792;27;11276;-83
2021/12/20 13:26:21;;;;;;;;;72.67;59.67;;;;;;;;5052555;28;8798;-83
2021/12/20 13:28:54;;;;;;;;;63.75;53.00;;;;;;;;5051918;28;9040;-83
2021/12/20 13:31:21;;;;;;;;;75.60;62.00;;;;;;;;5052205;28;9852;-82
2021/12/20 13:33:48;;;;;;;;;57.00;48.50;;;;;;;;5050743;27;8838;-83
2021/12/20 13:36:17;;;;;;;;;54.50;47.25;;;;;;;;5051790;27;8793;-83
2021/12/20 13:38:50;;;;;;;;;68.75;54.75;;;;;;;;5050633;27;8921;-82
2021/12/20 13:41:17;;;;;;;;;66.75;54.00;;;;;;;;5052076;28;9793;-82
2021/12/20 13:43:47;;;;;;;;;67.50;54.25;;;;;;;;5065566;27;11672;-81
2021/12/20 13:46:30;;;;;;;;;69.75;56.75;;;;;;;;5052207;27;8806;-82
2021/12/20 13:48:55;;;;;;;;;78.40;62.20;;;;;;;;5050332;27;8776;-82
2021/12/20 13:51:22;;;;;;;;;70.67;58.33;;;;;;;;5055972;28;9582;-81
2021/12/20 13:53:48;;;;;;;;;73.60;59.80;;;;;;;;5052146;27;8744;-82
2021/12/20 13:56:13;;;;;;;;;72.50;59.00;;;;;;;;5050676;28;9668;-81
2021/12/20 13:58:40;;;;;;;;;67.25;55.75;;;;;;;;5050425;27;8900;-82
2021/12/20 14:01:05;;;;;;;;;37.25;34.25;;;;;;;;5051297;27;9730;-82
2021/12/20 14:03:31;;;;;;;;;60.25;49.25;;;;;;;;5052045;27;8835;-82
2021/12/20 14:05:57;;;;;;;;;58.50;49.75;;;;;;;;5051505;27;8908;-82
2021/12/20 14:08:23;;;;;;;;;69.50;58.25;;;;;;;;5051164;27;8828;-82
2021/12/20 14:10:50;;;;;;;;;58.00;50.75;;;;;;;;5057718;27;8811;-82
2021/12/20 14:13:20;;;;;;;;;76.50;62.75;;;;;;;;5052814;27;8788;-82
2021/12/20 14:15:47;;;;;;;;;66.25;55.50;;;;;;;;5046500;28;8808;-82
2021/12/20 14:18:14;;;;;;;;;73.00;60.80;;;;;;;;5053812;27;8854;-82
2021/12/20 14:20:39;;;;;;;;;67.75;56.50;;;;;;;;5055770;28;8770;-82
2021/12/20 14:23:28;;;;;;;;;58.33;48.67;;;;;;;;5057283;28;8997;-81
2021/12/20 14:26:12;;;;;;;;;59.50;50.75;;;;;;;;5065737;28;8995;-81
2021/12/20 14:28:39;;;;;;;;;70.00;58.25;;;;;;;;5050843;27;8970;-83
2021/12/20 14:31:35;;;;;;;;;57.75;48.00;;;;;;;;5051729;28;8796;-83
2021/12/20 14:34:02;;;;;;;;;65.75;51.00;;;;;;;;5052432;27;8817;-81
2021/12/20 14:36:35;;;;;;;;;56.25;45.25;;;;;;;;5051084;27;8784;-81
2021/12/20 14:39:14;;;;;;;;;61.50;51.50;;;;;;;;5050273;27;8888;-82
2021/12/20 14:41:41;;;;;;;;;53.00;44.75;;;;;;;;5032160;28;8806;-82
2021/12/20 14:44:16;;;;;;;;;69.00;56.25;;;;;;;;5057591;27;8804;-82
2021/12/20 14:49:33;;;;;;;;;70.50;58.25;;;;;;;;5059178;28;9760;-82
2021/12/20 14:52:27;;;;;;;;;68.00;56.00;;;;;;;;5038521;28;8792;-83